Latest Coastal Weather Observations for King Island Airport

IDT60701

Issued at 3:33 am EST Thursday 17 August 2017 (issued every 10 minutes, with the page automatically refreshed every 10 minutes)

About coastal observations | Map of coastal stations | Coastal observations for TAS | Marine services | Other Formats
Station Details ID: 098017 Name: KING ISLAND AIRPORT Lat: -39.88 Lon: 143.88 Height: 37.0 m
Data from the previous 72 hours. | See also: Recent months at King Island Airport
Date/Time
EST
Temp
°C
Wind Pressure Rain since
9am
mm
Weather Cloud Vis
km
Sea
Height
m
Swell
Dir  Spd
kts
Gust
kts
hPa Trend Height
m
Period
s
Dir
17/03:30am 11.5 W 25 32 995.8 - 2.0 - Partly cloudy 10 - - - -
17/03:00am 11.7 W 26 40 995.7 - 2.0 - Cloudy 10 - - - -
17/02:30am 11.6 W 23 37 995.8 - 2.0 - Partly cloudy 10 - - - -
17/02:00am 11.4 W 25 38 995.6 - 2.0 - Partly cloudy 10 - - - -
17/01:30am 11.1 W 19 29 995.8 - 2.0 - Partly cloudy 10 - - - -
17/01:11am 11.9 W 21 31 995.8 - 2.0 - Partly cloudy 10 - - - -
17/01:00am 11.5 WNW 24 31 995.7 - 2.0 - Partly cloudy 10 - - - -
17/12:30am 11.5 WNW 25 33 995.7 - 2.0 - Partly cloudy 10 - - - -
17/12:00am 11.1 WNW 27 34 995.9 - 2.0 - Cloudy 10 - - - -
 
Date/Time
EST
Temp
°C
Wind Pressure Rain since
9am
mm
Weather Cloud Vis
km
Sea
Height
m
Swell
Dir  Spd
kts
Gust
kts
hPa Trend Height
m
Period
s
Dir
16/11:33pm 11.1 WNW 25 36 996.3 - 2.0 - Partly cloudy 10 - - - -
16/11:30pm 11.1 WNW 25 33 996.2 - 2.0 - Partly cloudy 10 - - - -
16/11:00pm 10.6 NW 25 31 996.0 - 2.0 - Partly cloudy 10 - - - -
16/10:43pm 10.5 WNW 23 33 996.0 - 2.0 - Partly cloudy 10 - - - -
16/10:30pm 10.2 WNW 28 36 996.4 - 1.8 - Partly cloudy 10 - - - -
16/10:22pm 10.4 WNW 23 34 996.7 - 1.8 - Partly cloudy 10 - - - -
16/10:00pm 10.4 WNW 19 26 996.5 - 1.8 - Partly cloudy 10 - - - -
16/09:48pm 9.9 WNW 19 26 996.5 - 1.8 - Partly cloudy 10 - - - -
16/09:34pm 9.4 W 26 50 997.0 - 1.6 - Partly cloudy 3 - - - -
16/09:30pm 9.3 W 26 50 997.1 - 1.6 - Partly cloudy 3 - - - -
16/09:26pm 10.2 WNW 23 50 996.8 - 1.0 - Partly cloudy 5 - - - -
16/09:25pm 11.0 WNW 22 50 996.6 - 0.8 - Partly cloudy 7 - - - -
16/09:24pm 11.3 WNW 20 33 996.5 - 0.6 - Partly cloudy 8 - - - -
16/09:00pm 11.6 WNW 20 26 996.6 - 0.4 Showers Mostly cloudy 10 - - - -
16/08:41pm 12.5 WNW 21 31 996.5 - 0.2 - Partly cloudy 10 - - - -
16/08:30pm 12.3 WNW 21 30 996.5 - 0.2 - Partly cloudy 10 - - - -
16/08:01pm 11.9 W 24 34 996.4 - 0.2 - Partly cloudy 10 - - - -
16/08:00pm 11.9 W 25 34 996.4 - 0.2 - Partly cloudy 10 - - - -
16/07:30pm 12.2 W 23 36 996.3 - 0.2 - Partly cloudy 10 - - - -
16/07:11pm 12.0 W 24 34 996.2 - 0.2 - Partly cloudy 10 - - - -
16/07:00pm 11.8 WNW 23 32 996.1 - 0.2 - Partly cloudy 10 - - - -
16/06:42pm 11.6 WNW 24 34 995.8 - 0.2 - Partly cloudy 10 - - - -
16/06:30pm 11.4 WNW 27 35 995.6 - 0.2 - Partly cloudy 10 - - - -
16/06:04pm 11.1 WNW 24 36 995.5 - 0.2 - Partly cloudy 10 - - - -
16/06:03pm 11.2 W 23 32 995.5 - 0.2 - Partly cloudy 10 - - - -
16/06:00pm 11.3 W 23 32 995.6 - 0.2 Showers Cloudy 9 - - - -
16/05:50pm 10.1 W 29 44 995.7 - 0.0 - Partly cloudy 5 - - - -
16/05:30pm 12.5 W 27 37 995.2 - 0.0 - Partly cloudy 10 - - - -
16/05:00pm 12.6 WNW 27 38 994.8 - 0.0 - Partly cloudy 10 - - - -
16/04:30pm 13.2 WNW 26 36 994.5 - 0.0 - Partly cloudy 10 - - - -
16/04:00pm 12.7 W 30 41 994.2 - 0.0 - Partly cloudy 10 - - - -
16/03:31pm 13.1 WNW 29 40 993.8 - 0.0 - Partly cloudy 10 - - - -
16/03:30pm 13.0 WNW 29 38 993.7 - 0.0 - Partly cloudy 10 - - - -
16/03:00pm 13.2 W 28 39 993.4 - 0.0 - Cloudy 10 - - - -
16/02:30pm 13.4 WNW 29 44 993.1 - 0.0 - Partly cloudy 10 - - - -
16/02:00pm 13.7 W 31 41 992.6 - 0.0 - Partly cloudy 10 - - - -
16/01:30pm 13.7 W 28 42 992.3 - 0.0 - Partly cloudy 10 - - - -
16/01:00pm 13.2 W 33 47 992.2 - 0.0 - Partly cloudy 10 - - - -
16/12:30pm 13.1 W 29 44 992.2 - 0.0 - Partly cloudy 10 - - - -
16/12:00pm 13.7 W 31 44 992.1 - 0.0 - Cloudy 10 - - - -
16/11:30am 13.8 WNW 32 44 991.9 - 0.0 - Partly cloudy 10 - - - -
16/11:00am 13.1 W 31 43 991.8 - 0.0 - Partly cloudy 10 - - - -
16/10:30am 12.6 W 31 42 991.4 - 0.0 - Partly cloudy 10 - - - -
16/10:00am 12.6 W 31 43 991.3 - 0.0 - Partly cloudy 10 - - - -
16/09:30am 12.4 W 27 41 990.9 - 0.0 - Partly cloudy 10 - - - -
16/09:00am 12.4 W 28 39 990.4 - 5.2 - Cloudy 10 - - - -
16/08:30am 11.7 W 30 42 990.0 - 5.2 - Partly cloudy 10 - - - -
16/08:00am 11.6 W 27 39 989.5 - 5.2 - Partly cloudy 10 - - - -
16/07:34am 11.3 W 24 35 989.1 - 5.2 - Partly cloudy 10 - - - -
16/07:30am 11.2 W 23 32 989.0 - 5.2 - Partly cloudy 10 - - - -
16/07:02am 10.3 W 25 42 988.2 - 5.0 - Partly cloudy 10 - - - -
16/07:00am 10.9 W 24 32 988.2 - 5.0 - Partly cloudy 10 - - - -
16/06:33am 10.5 WNW 22 33 987.6 - 5.0 - Partly cloudy 10 - - - -
16/06:30am 10.3 WNW 21 29 987.6 - 5.0 - Partly cloudy 10 - - - -
16/06:25am 9.9 WNW 19 29 987.5 - 5.0 - Partly cloudy 10 - - - -
16/06:24am 10.0 W 19 27 987.5 - 5.0 - Partly cloudy 10 - - - -
16/06:12am 9.4 W 27 45 987.4 - 5.0 - Partly cloudy 5 - - - -
16/06:08am 9.4 WNW 28 45 987.6 - 4.8 - Partly cloudy 4 - - - -
16/06:05am 10.1 NW 27 45 987.6 - 4.6 - Partly cloudy 5 - - - -
16/06:04am 10.4 NW 26 40 987.4 - 4.6 - Partly cloudy 6 - - - -
16/06:00am 10.8 NW 26 34 987.3 - 4.4 Showers Cloudy 10 - - - -
16/05:53am 10.8 NW 26 34 987.2 - 4.2 - Partly cloudy 10 - - - -
16/05:35am 10.0 NW 18 28 986.7 - 4.2 - Partly cloudy 9 - - - -
16/05:30am 10.1 WNW 22 32 987.1 - 4.2 - Partly cloudy 7 - - - -
16/05:14am 9.5 W 19 29 987.6 - 3.6 - Partly cloudy 10 - - - -
16/05:00am 8.9 W 27 52 987.4 - 3.4 - Partly cloudy 2 - - - -
16/04:52am 8.1 WNW 26 52 987.7 - 2.8 - Partly cloudy 5 - - - -
16/04:51am 10.1 WNW 23 45 987.5 - 1.8 - Partly cloudy 7 - - - -
16/04:49am 10.9 WNW 21 31 986.9 - 1.8 - Partly cloudy 7 - - - -
16/04:34am 10.5 WNW 21 30 987.3 - 1.6 - Partly cloudy 9 - - - -
16/04:30am 10.3 WNW 24 34 987.2 - 1.6 - Partly cloudy 7 - - - -
16/04:28am 10.2 WNW 25 34 987.2 - 1.6 - Partly cloudy 6 - - - -
16/04:05am 10.7 WNW 32 44 987.7 - 1.0 - Partly cloudy 5 - - - -
16/04:00am 13.0 WNW 30 43 987.1 - 0.6 - Partly cloudy 10 - - - -
16/03:50am 13.1 WNW 29 39 987.2 - 0.6 - Partly cloudy 10 - - - -
16/03:44am 12.7 WNW 30 37 987.3 - 0.6 - Partly cloudy 10 - - - -
16/03:30am 11.7 W 16 33 987.6 - 0.6 - Partly cloudy 10 - - - -
16/03:29am 11.4 W 15 30 987.6 - 0.6 - Partly cloudy 10 - - - -
16/03:20am 10.5 W 21 31 987.8 - 0.6 - Partly cloudy 10 - - - -
16/03:07am 12.7 NW 27 37 987.7 - 0.6 - Partly cloudy 10 - - - -
16/03:00am 12.5 WNW 24 33 987.8 - 0.6 Showers Cloudy 10 - - - -
16/02:40am 12.7 WNW 27 37 988.3 - 0.4 - Partly cloudy 10 - - - -
16/02:30am 12.7 NW 28 35 988.6 - 0.4 - Partly cloudy 10 - - - -
16/02:00am 12.3 NW 25 33 989.3 - 0.4 - Partly cloudy 10 - - - -
16/01:34am 11.7 NW 25 35 989.7 - 0.4 - - 10 - - - -
16/01:30am 11.7 NW 26 35 989.8 - 0.4 - Partly cloudy 10 - - - -
16/01:01am 11.5 NW 21 32 990.0 - 0.4 - Partly cloudy 10 - - - -
16/01:00am 11.5 NW 21 30 990.0 - 0.4 - Partly cloudy 10 - - - -
16/12:33am 13.2 NW 28 38 990.3 - 0.4 - Partly cloudy 10 - - - -
16/12:30am 13.1 NW 26 33 990.4 - 0.4 - Partly cloudy 10 - - - -
16/12:00am 13.3 NW 24 31 990.8 - 0.4 - Cloudy 10 - - - -
 
Date/Time
EST
Temp
°C
Wind Pressure Rain since
9am
mm
Weather Cloud Vis
km
Sea
Height
m
Swell
Dir  Spd
kts
Gust
kts
hPa Trend Height
m
Period
s
Dir
15/11:30pm 13.1 NW 21 26 991.4 - 0.4 - Partly cloudy 10 - - - -
15/11:00pm 13.2 NW 19 24 991.9 - 0.4 - Partly cloudy 10 - - - -
15/10:30pm 12.9 NW 19 22 992.1 - 0.4 - Partly cloudy 10 - - - -
15/10:00pm 13.1 WNW 19 25 993.0 - 0.4 - Partly cloudy 10 - - - -
15/09:30pm 12.8 WNW 17 24 993.2 - 0.4 - Partly cloudy 10 - - - -
15/09:00pm 13.0 WNW 16 21 993.8 - 0.4 - Cloudy 10 - - - -
15/08:30pm 13.1 WNW 16 22 993.9 - 0.4 - Partly cloudy 10 - - - -
15/08:00pm 13.0 W 15 24 994.2 - 0.4 - - 10 - - - -
15/07:30pm 13.1 W 16 23 994.3 - 0.4 - Partly cloudy 10 - - - -
15/07:00pm 13.3 WNW 18 26 994.3 - 0.4 - Partly cloudy 10 - - - -
15/06:30pm 13.6 W 17 24 994.2 - 0.4 - Partly cloudy 10 - - - -
15/06:00pm 13.7 W 15 20 994.1 - 0.4 - Cloudy 9 - - - -
15/05:30pm 13.8 WNW 16 23 994.3 - 0.4 - Partly cloudy 9 - - - -
15/05:00pm 14.5 WNW 19 24 994.3 - 0.4 - Partly cloudy 8 - - - -
15/04:30pm 14.9 WNW 21 28 994.3 - 0.4 - Partly cloudy 8 - - - -
15/04:00pm 15.3 WNW 22 29 994.5 - 0.4 - Partly cloudy 8 - - - -
15/03:32pm 15.7 WNW 21 29 994.5 - 0.4 - Partly cloudy 8 - - - -
15/03:30pm 15.6 WNW 21 29 994.5 - 0.4 - Partly cloudy 8 - - - -
15/03:00pm 16.3 NW 25 31 994.7 - 0.4 - Cloudy 9 - - - -
15/02:30pm 16.0 NW 26 32 994.8 - 0.4 - Cloudy 9 - - - -
15/02:00pm 15.5 NW 25 30 995.1 - 0.4 - Partly cloudy 10 - - - -
15/01:30pm 15.5 NW 25 31 995.4 - 0.4 - Cloudy 10 - - - -
15/01:02pm 15.3 NW 24 35 995.9 - 0.4 - Cloudy 10 - - - -
15/01:00pm 15.3 NW 24 30 995.9 - 0.4 - Cloudy 10 - - - -
15/12:30pm 15.2 NW 24 29 996.2 - 0.4 - Cloudy 10 - - - -
15/12:00pm 15.0 NNW 24 32 996.5 - 0.4 - Cloudy 10 - - - -
15/11:50am 15.0 NNW 22 28 996.6 - 0.4 - Cloudy 10 - - - -
15/11:30am 15.2 N 23 29 996.8 - 0.4 - Partly cloudy 10 - - - -
15/11:10am 15.4 N 22 34 997.2 - 0.4 - Partly cloudy 10 - - - -
15/11:00am 15.2 N 18 24 997.4 - 0.4 - Partly cloudy 10 - - - -
15/10:30am 14.5 N 17 26 997.8 - 0.4 - Partly cloudy 10 - - - -
15/10:00am 14.1 N 16 20 998.3 - 0.0 - Partly cloudy 10 - - - -
15/09:30am 14.0 N 14 18 999.1 - 0.0 - Partly cloudy 10 - - - -
15/09:00am 14.1 N 16 21 999.6 - 0.2 Recent precip. Mostly cloudy 10 - - - -
15/08:30am 12.4 NNE 13 16 1000.5 - 0.2 - Partly cloudy 10 - - - -
15/08:00am 12.1 NNE 14 18 1001.2 - 0.0 - Partly cloudy 10 - - - -
15/07:30am 11.6 NNE 12 16 1001.6 - 0.0 - Partly cloudy 10 - - - -
15/07:00am 11.3 NE 12 15 1002.0 - 0.0 - Partly cloudy 10 - - - -
15/06:30am 10.9 NE 9 12 1002.8 - 0.0 - Partly cloudy 10 - - - -
15/06:00am 10.5 NE 8 10 1003.6 - 0.0 - Mostly cloudy 10 - - - -
15/05:30am 10.3 NE 8 11 1004.1 - 0.0 - - 8 - - - -
15/05:14am 10.2 NE 9 13 1004.3 - 0.0 - Partly cloudy 7 - - - -
15/05:02am 10.3 NE 9 11 1004.5 - 0.0 - Partly cloudy 6 - - - -
15/05:00am 10.4 NE 9 11 1004.5 - 0.0 - Partly cloudy 6 - - - -
15/04:30am 11.0 NE 10 15 1005.0 - 0.0 - Cloudy 1 - - - -
15/04:00am 10.8 NE 10 14 1005.7 - 0.0 - Cloudy 3 - - - -
15/03:50am 10.7 NE 10 14 1006.0 - 0.0 - Cloudy 5 - - - -
15/03:30am 10.6 NE 9 11 1006.4 - 0.0 - Cloudy 8 - - - -
15/03:02am 10.2 NE 7 11 1007.0 - 0.0 - Partly cloudy 9 - - - -
15/03:00am 10.0 NE 7 10 1007.1 - 0.0 - Partly cloudy 9 - - - -
15/02:30am 7.8 E 5 6 1007.8 - 0.0 - Partly cloudy 9 - - - -
15/02:00am 7.5 E 5 6 1008.3 - 0.0 - Partly cloudy 8 - - - -
15/01:30am 6.8 ENE 5 6 1008.8 - 0.0 - - 6 - - - -
15/01:00am 5.7 ENE 5 6 1009.2 - 0.0 - - 8 - - - -
15/12:30am 5.8 E 5 5 1009.6 - 0.0 - - 9 - - - -
15/12:00am 5.8 ESE 5 5 1010.2 - 0.0 - - 9 - - - -
 
Date/Time
EST
Temp
°C
Wind Pressure Rain since
9am
mm
Weather Cloud Vis
km
Sea
Height
m
Swell
Dir  Spd
kts
Gust
kts
hPa Trend Height
m
Period
s
Dir
14/11:30pm 6.8 ESE 6 6 1010.3 - 0.0 - - 8 - - - -
14/11:00pm 6.6 ESE 5 5 1011.1 - 0.0 - - 8 - - - -
14/10:30pm 7.4 ESE 5 5 1011.7 - 0.0 - - 10 - - - -
14/10:00pm 7.9 CALM 0 0 1012.2 - 0.0 - - 8 - - - -
14/09:30pm 8.6 CALM 0 0 1012.5 - 0.0 - - 9 - - - -
14/09:00pm 10.2 WNW 5 6 1012.6 - 0.0 - - 10 - - - -
14/08:30pm 10.6 WNW 7 8 1012.7 - 0.0 - - 10 - - - -
14/08:00pm 10.6 WNW 7 8 1012.7 - 0.0 - - 10 - - - -
14/07:30pm 10.8 WNW 7 8 1012.6 - 0.0 - Partly cloudy 10 - - - -
14/07:00pm 11.0 WNW 6 8 1012.3 - 0.0 - Partly cloudy 10 - - - -
14/06:30pm 11.3 WNW 6 7 1012.4 - 0.0 - Partly cloudy 10 - - - -
14/06:00pm 11.8 WNW 7 9 1012.2 - 0.0 - Mostly clear 10 - - - -
14/05:30pm 12.7 W 9 11 1012.4 - 0.0 - Partly cloudy 10 - - - -
14/05:00pm 13.4 W 10 13 1012.4 - 0.0 - Partly cloudy 10 - - - -
14/04:30pm 14.2 W 10 16 1012.4 - 0.0 - Partly cloudy 10 - - - -
14/04:00pm 14.2 W 13 17 1012.4 - 0.0 - Partly cloudy 10 - - - -
14/03:30pm 14.3 W 12 17 1012.4 - 0.0 - - 10 - - - -
14/03:00pm 14.8 W 13 18 1012.2 - 0.0 - Mostly clear 10 - - - -
14/02:30pm 14.8 W 14 18 1011.9 - 0.0 - - 10 - - - -
14/02:00pm 14.9 W 12 17 1012.0 - 0.0 - Partly cloudy 10 - - - -
14/01:30pm 15.3 W 14 19 1012.0 - 0.0 - Partly cloudy 10 - - - -
14/01:00pm 15.1 WNW 15 19 1011.8 - 0.0 - Partly cloudy 10 - - - -
14/12:30pm 15.5 WNW 15 19 1011.9 - 0.0 - Partly cloudy 10 - - - -
14/12:00pm 15.5 WNW 13 18 1012.1 - 0.0 - Cloudy 10 - - - -
14/11:30am 15.2 W 14 20 1012.5 - 0.0 - Partly cloudy 10 - - - -
14/11:00am 15.4 W 13 17 1012.3 - 0.0 - - 10 - - - -
14/10:30am 14.9 W 14 18 1012.4 - 0.0 - Partly cloudy 10 - - - -
14/10:00am 14.3 W 11 15 1012.8 - 0.0 - Cloudy 10 - - - -
14/09:30am 14.0 W 11 15 1012.4 - 0.0 - Cloudy 10 - - - -
14/09:00am 14.1 WSW 12 18 1012.5 - 2.8 - Cloudy 10 - - - -
14/08:30am 13.9 W 14 22 1012.5 - 2.8 - Partly cloudy 10 - - - -
14/08:00am 14.2 WNW 12 16 1012.2 - 2.8 - Partly cloudy 10 - - - -
14/07:30am 14.0 W 13 18 1011.9 - 2.8 - Partly cloudy 10 - - - -
14/07:00am 13.9 WNW 14 18 1011.5 - 2.8 - Cloudy 10 - - - -
14/06:30am 13.9 WNW 13 16 1011.0 - 2.8 - Partly cloudy 10 - - - -
14/06:00am 14.1 NW 13 16 1010.9 - 2.8 - Cloudy 10 - - - -
14/05:30am 14.0 NW 14 17 1010.9 - 2.8 - - 10 - - - -
14/05:00am 13.8 NW 13 17 1010.7 - 2.8 - - 10 - - - -
14/04:30am 13.9 NW 12 15 1010.8 - 2.8 - Partly cloudy 10 - - - -
14/04:00am 14.0 NW 10 14 1010.6 - 2.8 - Partly cloudy 10 - - - -

Other Formats:

Comma delimited format used in spreadsheet applications
http://www.bom.gov.au/fwo/IDT60701/IDT60701.94850.axf

JavaScript Object Notation format (JSON) in row-major order
http://www.bom.gov.au/fwo/IDT60701/IDT60701.94850.json